Decoded Metar for ULAA (ARHANGELSK in RUSSIA) (IATA:N/A) | Meteo·Mobile Aviation Weather
aviador You're here:

ULAA Decoded Metar

ARHANGELSK in RUSSIA
Report Time2019-07-23 07:30:00
UTC Time2019-07-23 07:46:06
Flight Rules mvfr MVFR
Wind340° at 4 kt
W.Decomp.*RWY 26: 1.7 kt HW 3.6 kt RCW
Visibility9999 m
Phenomena:N/A
Clouds:Overcast CB 026 Hf
Expected CloudBase > 400 ft AGL from Temp-Dew spread
Ceiling2,600 ft
Temp10°C (ISA -5)
Dew Point09°C (94% RH)
AAT8.4°C
QNH1012 hPa
Density Alt-331 ft
Elevation62 ft
Report Wrong Elevation
Raw Report
ULAA 230730Z 34002MPS 200V010 9999 OVC026CB 10/09 Q1012 R08/290060
NOSIG RMK QFE758/1011=

Extra information for ULAA:More info

Metar Taf Metar & Taf Last 4 Metars F.Rules Stats Wind Profile Meteogram Temp Stats Airport Information Weather charts Add Link Nearby VenuesMetar ALERT Operation Metar Decoded Social comments